createdAt,value
2018-11-22T12:17:49.020Z,41.07
2018-11-22T12:20:19.112Z,43.27
2018-11-22T12:22:50.233Z,46.43
2018-11-22T12:25:21.217Z,45.80
2018-11-22T12:27:52.551Z,45.87
2018-11-22T12:30:23.503Z,50.63
2018-11-22T12:32:57.145Z,51.13
2018-11-22T12:35:30.881Z,50.77
2018-11-22T12:38:04.464Z,51.60
2018-11-22T12:40:34.144Z,56.53
2018-11-22T12:43:03.902Z,60.37
2018-11-22T12:45:33.691Z,50.80
2018-11-22T12:48:03.355Z,56.57
2018-11-22T12:50:32.983Z,52.80
2018-11-22T12:53:02.622Z,55.57
2018-11-22T12:55:32.283Z,52.87
2018-11-22T12:58:01.861Z,57.40
2018-11-22T13:00:31.545Z,58.33
2018-11-22T13:03:01.299Z,61.40
2018-11-22T13:05:30.922Z,61.90
2018-11-22T13:08:00.519Z,67.07
2018-11-22T13:10:30.168Z,64.30
2018-11-22T13:12:59.762Z,60.07
2018-11-22T13:15:29.490Z,65.90
2018-11-22T13:17:59.132Z,73.57
2018-11-22T13:20:28.752Z,68.20
2018-11-22T13:22:58.344Z,63.33
2018-11-22T13:25:27.963Z,62.37
2018-11-22T13:27:57.522Z,67.70
2018-11-22T13:30:28.461Z,66.47
2018-11-22T13:32:58.741Z,60.20
2018-11-22T13:35:28.382Z,67.13
2018-11-22T13:37:58.627Z,64.53
2018-11-22T13:40:28.293Z,65.17
2018-11-22T13:42:57.868Z,71.47
2018-11-22T13:45:28.653Z,70.63
2018-11-22T13:47:58.962Z,66.97
2018-11-22T13:50:30.092Z,68.73
2018-11-22T13:53:04.350Z,68.10
2018-11-22T13:55:34.138Z,71.00
2018-11-22T13:58:04.148Z,75.63
2018-11-22T14:00:34.673Z,67.43
2018-11-22T14:03:05.812Z,76.30
2018-11-22T14:05:35.442Z,67.67
2018-11-22T14:08:05.134Z,76.83
2018-11-22T14:10:35.121Z,78.10
2018-11-22T14:13:04.806Z,81.40
2018-11-22T14:15:34.411Z,80.57
2018-11-22T14:18:05.347Z,74.13
2018-11-22T14:20:36.140Z,68.67
2018-11-22T14:23:06.142Z,71.20
2018-11-22T14:25:35.766Z,70.13
2018-11-22T14:28:05.568Z,71.40
2018-11-22T14:30:36.227Z,79.97
2018-11-22T14:33:06.025Z,81.63
2018-11-22T14:35:35.654Z,80.73
2018-11-22T14:38:05.531Z,78.87
2018-11-22T14:40:35.225Z,91.30
2018-11-22T14:43:04.779Z,82.03
2018-11-22T14:45:34.555Z,91.03
2018-11-22T14:48:04.833Z,83.63
2018-11-22T14:50:44.247Z,78.13
2018-11-22T14:53:19.690Z,82.47
2018-11-22T14:55:49.358Z,85.37
2018-11-22T14:58:19.048Z,96.03
2018-11-22T15:00:48.702Z,92.27
2018-11-22T15:03:18.361Z,100.07
2018-11-22T15:05:48.119Z,103.23
2018-11-22T15:08:17.783Z,101.00
2018-11-22T15:10:47.500Z,100.00
2018-11-22T15:13:17.132Z,83.67
2018-11-22T15:15:46.660Z,96.37
2018-11-22T15:18:16.257Z,86.63
2018-11-22T15:20:45.954Z,95.17
2018-11-22T15:23:15.517Z,91.63
2018-11-22T15:25:45.120Z,89.10
2018-11-22T15:28:14.724Z,96.03
2018-11-22T15:30:44.441Z,87.53
2018-11-22T15:33:14.892Z,100.57
2018-11-22T15:35:44.773Z,83.47
2018-11-22T15:38:14.398Z,90.70
2018-11-22T15:40:44.078Z,80.00
2018-11-22T15:43:13.667Z,94.43
2018-11-22T15:45:43.300Z,93.43
2018-11-22T15:48:12.968Z,103.90
2018-11-22T15:50:42.613Z,103.57
2018-11-22T15:53:12.205Z,108.07
2018-11-22T15:55:41.930Z,118.30
2018-11-22T15:58:11.633Z,116.33
2018-11-22T16:00:41.219Z,136.83
2018-11-22T16:03:10.761Z,119.23
2018-11-22T16:05:40.768Z,123.40
2018-11-22T16:08:10.780Z,123.73
2018-11-22T16:10:41.052Z,119.37
2018-11-22T16:13:13.245Z,115.27
2018-11-22T16:15:50.122Z,126.57
2018-11-22T16:18:20.020Z,127.23
2018-11-22T16:20:50.469Z,140.13
2018-11-22T16:23:20.349Z,155.03
2018-11-22T16:25:50.179Z,148.70
2018-11-22T16:28:21.822Z,159.13
2018-11-22T16:30:51.701Z,162.37
2018-11-22T16:33:21.480Z,158.50
2018-11-22T16:35:51.238Z,163.63
2018-11-22T16:38:20.866Z,183.63
2018-11-22T16:40:50.788Z,158.57
2018-11-22T16:43:20.617Z,186.43
2018-11-22T16:45:50.430Z,179.67
2018-11-22T16:48:20.129Z,195.93
2018-11-22T16:50:49.950Z,213.97
2018-11-22T16:53:19.893Z,214.77
2018-11-22T16:55:49.979Z,214.90
2018-11-22T16:58:20.604Z,205.30
2018-11-22T17:00:50.302Z,199.80
2018-11-22T17:03:19.917Z,214.77
2018-11-22T17:05:49.574Z,187.07
2018-11-22T17:08:19.344Z,223.77
2018-11-22T17:10:51.905Z,213.73
2018-11-22T17:13:21.629Z,191.37
2018-11-22T17:15:52.046Z,209.80
2018-11-22T17:18:21.645Z,217.47
2018-11-22T17:20:54.371Z,208.70
2018-11-22T17:23:25.071Z,197.13
2018-11-22T17:25:55.501Z,216.23
2018-11-22T17:28:26.210Z,210.13
2018-11-22T17:30:55.827Z,198.07
2018-11-22T17:33:25.386Z,226.00
2018-11-22T17:35:58.101Z,227.13
2018-11-22T17:38:27.770Z,231.03
2018-11-22T17:40:57.452Z,217.43
2018-11-22T17:43:27.337Z,217.93
2018-11-22T17:45:56.990Z,222.37
2018-11-22T17:48:26.535Z,224.17
2018-11-22T17:50:56.201Z,225.77
2018-11-22T17:53:25.964Z,237.93
2018-11-22T17:55:55.766Z,220.67
2018-11-22T17:58:26.369Z,209.40
2018-11-22T18:00:55.806Z,202.37
2018-11-22T18:03:25.544Z,227.20
2018-11-22T18:05:56.231Z,207.10
2018-11-22T18:08:26.009Z,210.20
2018-11-22T18:10:57.494Z,212.17
2018-11-22T18:13:27.181Z,223.07
2018-11-22T18:16:00.953Z,233.87
2018-11-22T18:18:31.241Z,223.63
2018-11-22T18:21:00.944Z,195.03
2018-11-22T18:23:31.362Z,190.17
2018-11-22T18:26:01.789Z,207.37
2018-11-22T18:28:38.155Z,174.07
2018-11-22T18:31:07.903Z,177.50
2018-11-22T18:33:38.632Z,156.77
2018-11-22T18:36:11.331Z,195.57
2018-11-22T18:38:44.019Z,194.63
2018-11-22T18:41:13.767Z,213.30
2018-11-22T18:43:44.280Z,200.63
2018-11-22T18:46:13.991Z,194.03
2018-11-22T18:48:43.698Z,206.77
2018-11-22T18:51:13.412Z,222.03
2018-11-22T18:53:43.329Z,209.83
2018-11-22T18:56:12.936Z,203.20
2018-11-22T18:58:44.380Z,212.60
2018-11-22T19:01:15.143Z,209.97
2018-11-22T19:03:45.732Z,195.80
2018-11-22T19:06:16.437Z,175.23
2018-11-22T19:08:46.177Z,192.30
2018-11-22T19:11:20.909Z,199.67
2018-11-22T19:13:51.331Z,212.27
2018-11-22T19:16:21.040Z,179.93
2018-11-22T19:18:53.827Z,175.20
2018-11-22T19:21:25.821Z,184.70
2018-11-22T19:23:55.491Z,175.17
2018-11-22T19:26:25.310Z,185.17
2018-11-22T19:28:55.010Z,203.23
2018-11-22T19:31:24.731Z,186.10
2018-11-22T19:33:55.762Z,179.33
2018-11-22T19:36:26.452Z,185.07
2018-11-22T19:38:56.187Z,174.23
2018-11-22T19:41:26.516Z,186.10
2018-11-22T19:44:05.436Z,196.17
2018-11-22T19:46:35.046Z,189.37
2018-11-22T19:49:04.672Z,205.80
2018-11-22T19:51:35.278Z,195.13
2018-11-22T19:54:08.601Z,205.33
2018-11-22T19:56:41.356Z,207.03
2018-11-22T19:59:11.038Z,190.23
2018-11-22T20:01:45.631Z,178.00
2018-11-22T20:04:20.003Z,189.50
2018-11-22T20:06:51.238Z,186.53
2018-11-22T20:09:23.982Z,181.37
2018-11-22T20:11:57.772Z,183.33
2018-11-22T20:14:33.872Z,173.63
2018-11-22T20:17:03.531Z,180.00
2018-11-22T20:19:36.477Z,178.40
2018-11-22T20:22:06.178Z,179.37
2018-11-22T20:24:36.152Z,201.70
2018-11-22T20:27:06.964Z,186.13
2018-11-22T20:29:36.716Z,177.33
2018-11-22T20:32:09.627Z,178.03
2018-11-22T20:34:46.173Z,174.57
2018-11-22T20:37:18.774Z,167.47
2018-11-22T20:39:49.231Z,172.53
2018-11-22T20:42:23.501Z,160.40
2018-11-22T20:44:55.405Z,163.13
2018-11-22T20:47:25.125Z,163.87
2018-11-22T20:49:54.711Z,146.87
2018-11-22T20:52:25.792Z,176.37
2018-11-22T20:54:55.533Z,162.07
2018-11-22T20:57:25.362Z,148.93
2018-11-22T20:59:55.869Z,151.80
2018-11-22T21:02:25.567Z,150.67
2018-11-22T21:04:55.196Z,165.40
2018-11-22T21:07:25.602Z,158.70
2018-11-22T21:09:55.242Z,161.63
2018-11-22T21:12:24.928Z,156.60
2018-11-22T21:14:54.625Z,144.03
2018-11-22T21:17:24.257Z,153.67
2018-11-22T21:19:54.668Z,155.00
2018-11-22T21:22:24.279Z,138.17
2018-11-22T21:24:53.929Z,140.03
2018-11-22T21:27:23.560Z,163.07
2018-11-22T21:29:53.149Z,146.97
2018-11-22T21:32:22.751Z,148.00
2018-11-22T21:34:52.381Z,148.20
2018-11-22T21:37:22.240Z,139.40
2018-11-22T21:39:51.837Z,129.47
2018-11-22T21:42:21.520Z,144.43
2018-11-22T21:44:51.210Z,143.00
2018-11-22T21:47:20.832Z,153.07
2018-11-22T21:49:50.433Z,138.20
2018-11-22T21:52:20.151Z,154.53
2018-11-22T21:54:49.770Z,142.73
2018-11-22T21:57:19.356Z,150.50
2018-11-22T21:59:49.004Z,138.23
2018-11-22T22:02:18.933Z,148.77
2018-11-22T22:04:48.738Z,135.53
2018-11-22T22:07:18.452Z,143.47
2018-11-22T22:09:48.130Z,133.00
2018-11-22T22:12:17.912Z,124.47
2018-11-22T22:14:47.560Z,139.57
2018-11-22T22:17:17.333Z,118.80
2018-11-22T22:19:47.144Z,135.30
2018-11-22T22:22:16.947Z,127.83
2018-11-22T22:24:46.657Z,134.63
2018-11-22T22:27:16.295Z,124.27
2018-11-22T22:29:45.918Z,119.43
2018-11-22T22:32:15.587Z,122.30
2018-11-22T22:34:45.214Z,133.73
2018-11-22T22:37:14.788Z,116.17
2018-11-22T22:39:44.333Z,124.27
2018-11-22T22:42:13.976Z,119.30
2018-11-22T22:44:43.603Z,115.50
2018-11-22T22:47:13.239Z,117.30
2018-11-22T22:49:42.813Z,124.50
2018-11-22T22:52:12.420Z,127.67
2018-11-22T22:54:42.054Z,118.97
2018-11-22T22:57:11.636Z,120.27
2018-11-22T22:59:41.221Z,112.77
2018-11-22T23:02:10.842Z,129.70
2018-11-22T23:04:40.437Z,122.63
2018-11-22T23:07:10.040Z,119.77
2018-11-22T23:09:39.649Z,132.33
2018-11-22T23:12:09.226Z,128.27
2018-11-22T23:14:38.805Z,121.03
2018-11-22T23:17:09.374Z,136.17
2018-11-22T23:19:38.190Z,141.80
2018-11-22T23:22:07.772Z,125.17
2018-11-22T23:24:37.505Z,138.80
2018-11-22T23:27:07.318Z,124.37
2018-11-22T23:29:36.980Z,136.07
2018-11-22T23:32:06.554Z,136.03
2018-11-22T23:34:36.167Z,133.80
2018-11-22T23:37:06.020Z,126.77
2018-11-22T23:39:35.565Z,136.43
2018-11-22T23:42:05.554Z,145.33
2018-11-22T23:44:35.175Z,139.80
2018-11-22T23:47:04.772Z,139.13
2018-11-22T23:49:34.371Z,134.00
2018-11-22T23:52:04.089Z,149.37
2018-11-22T23:54:33.653Z,140.97
2018-11-22T23:57:03.271Z,135.93
2018-11-22T23:59:33.018Z,135.43
